sensor_id;sensor_type;location;lat;lon;timestamp;P1;durP1;ratioP1;P2;durP2;ratioP2
43160;SDS011;40968;52.342;5.528;2023-08-01T00:00:08;11.00;;;3.03;;
43160;SDS011;40968;52.342;5.528;2023-08-01T00:02:36;15.10;;;3.95;;
43160;SDS011;40968;52.342;5.528;2023-08-01T00:05:03;14.43;;;3.10;;
43160;SDS011;40968;52.342;5.528;2023-08-01T00:07:31;7.07;;;2.75;;
43160;SDS011;40968;52.342;5.528;2023-08-01T00:09:58;11.40;;;3.08;;
43160;SDS011;40968;52.342;5.528;2023-08-01T00:12:24;9.63;;;3.40;;
43160;SDS011;40968;52.342;5.528;2023-08-01T00:14:51;11.88;;;3.08;;
43160;SDS011;40968;52.342;5.528;2023-08-01T00:17:18;11.07;;;3.50;;
43160;SDS011;40968;52.342;5.528;2023-08-01T00:19:46;11.75;;;3.35;;
43160;SDS011;40968;52.342;5.528;2023-08-01T00:22:12;7.80;;;3.28;;
43160;SDS011;40968;52.342;5.528;2023-08-01T00:24:40;10.15;;;3.47;;
43160;SDS011;40968;52.342;5.528;2023-08-01T00:27:07;13.93;;;3.60;;
43160;SDS011;40968;52.342;5.528;2023-08-01T00:29:35;13.48;;;3.50;;
43160;SDS011;40968;52.342;5.528;2023-08-01T00:32:02;13.93;;;4.05;;
43160;SDS011;40968;52.342;5.528;2023-08-01T00:34:29;14.05;;;3.67;;
43160;SDS011;40968;52.342;5.528;2023-08-01T00:36:56;22.45;;;4.38;;
43160;SDS011;40968;52.342;5.528;2023-08-01T00:39:22;12.85;;;4.00;;
43160;SDS011;40968;52.342;5.528;2023-08-01T00:41:50;17.30;;;4.35;;
43160;SDS011;40968;52.342;5.528;2023-08-01T00:44:17;9.15;;;3.20;;
43160;SDS011;40968;52.342;5.528;2023-08-01T00:46:44;14.50;;;3.25;;
43160;SDS011;40968;52.342;5.528;2023-08-01T00:49:11;10.55;;;3.22;;
43160;SDS011;40968;52.342;5.528;2023-08-01T00:51:38;13.05;;;3.58;;
43160;SDS011;40968;52.342;5.528;2023-08-01T00:54:04;13.00;;;3.88;;
43160;SDS011;40968;52.342;5.528;2023-08-01T00:56:31;12.50;;;3.53;;
43160;SDS011;40968;52.342;5.528;2023-08-01T00:59:00;13.70;;;3.35;;
43160;SDS011;40968;52.342;5.528;2023-08-01T01:01:26;12.70;;;3.97;;
43160;SDS011;40968;52.342;5.528;2023-08-01T01:03:53;22.52;;;3.95;;
43160;SDS011;40968;52.342;5.528;2023-08-01T01:06:20;13.05;;;3.92;;
43160;SDS011;40968;52.342;5.528;2023-08-01T01:08:50;14.90;;;3.80;;
43160;SDS011;40968;52.342;5.528;2023-08-01T01:11:18;11.52;;;3.55;;
43160;SDS011;40968;52.342;5.528;2023-08-01T01:13:45;15.95;;;4.07;;
43160;SDS011;40968;52.342;5.528;2023-08-01T01:16:13;13.07;;;4.13;;
43160;SDS011;40968;52.342;5.528;2023-08-01T01:18:40;16.95;;;3.90;;
43160;SDS011;40968;52.342;5.528;2023-08-01T01:21:08;11.57;;;3.72;;
43160;SDS011;40968;52.342;5.528;2023-08-01T01:23:35;11.93;;;4.15;;
43160;SDS011;40968;52.342;5.528;2023-08-01T01:26:02;14.25;;;4.05;;
43160;SDS011;40968;52.342;5.528;2023-08-01T01:28:32;13.27;;;3.92;;
43160;SDS011;40968;52.342;5.528;2023-08-01T01:30:59;13.48;;;4.00;;
43160;SDS011;40968;52.342;5.528;2023-08-01T01:33:27;13.10;;;3.88;;
43160;SDS011;40968;52.342;5.528;2023-08-01T01:35:54;15.88;;;4.22;;
43160;SDS011;40968;52.342;5.528;2023-08-01T01:38:22;17.35;;;3.83;;
43160;SDS011;40968;52.342;5.528;2023-08-01T01:40:49;12.82;;;4.07;;
43160;SDS011;40968;52.342;5.528;2023-08-01T01:43:16;18.85;;;4.47;;
43160;SDS011;40968;52.342;5.528;2023-08-01T01:45:42;14.55;;;4.05;;
43160;SDS011;40968;52.342;5.528;2023-08-01T01:48:09;14.85;;;4.25;;
43160;SDS011;40968;52.342;5.528;2023-08-01T01:50:36;18.73;;;4.30;;
43160;SDS011;40968;52.342;5.528;2023-08-01T01:53:02;13.60;;;4.18;;
43160;SDS011;40968;52.342;5.528;2023-08-01T01:55:31;17.92;;;4.85;;
43160;SDS011;40968;52.342;5.528;2023-08-01T01:57:57;23.30;;;4.93;;
43160;SDS011;40968;52.342;5.528;2023-08-01T02:00:24;17.38;;;4.13;;
43160;SDS011;40968;52.342;5.528;2023-08-01T02:02:51;14.15;;;4.72;;
43160;SDS011;40968;52.342;5.528;2023-08-01T02:05:17;18.83;;;4.75;;
43160;SDS011;40968;52.342;5.528;2023-08-01T02:07:44;28.27;;;4.80;;
43160;SDS011;40968;52.342;5.528;2023-08-01T02:10:10;19.88;;;5.10;;
43160;SDS011;40968;52.342;5.528;2023-08-01T02:12:38;22.08;;;4.90;;
43160;SDS011;40968;52.342;5.528;2023-08-01T02:15:06;13.30;;;4.78;;
43160;SDS011;40968;52.342;5.528;2023-08-01T02:17:33;21.20;;;4.95;;
43160;SDS011;40968;52.342;5.528;2023-08-01T02:19:59;18.55;;;4.55;;
43160;SDS011;40968;52.342;5.528;2023-08-01T02:22:26;13.10;;;4.28;;
43160;SDS011;40968;52.342;5.528;2023-08-01T02:24:53;18.70;;;4.10;;
43160;SDS011;40968;52.342;5.528;2023-08-01T02:27:19;17.90;;;5.75;;
43160;SDS011;40968;52.342;5.528;2023-08-01T02:29:47;13.63;;;4.65;;
43160;SDS011;40968;52.342;5.528;2023-08-01T02:32:15;24.63;;;4.55;;
43160;SDS011;40968;52.342;5.528;2023-08-01T02:34:41;23.02;;;4.90;;
43160;SDS011;40968;52.342;5.528;2023-08-01T02:37:08;19.52;;;4.60;;
43160;SDS011;40968;52.342;5.528;2023-08-01T02:39:34;14.85;;;4.40;;
43160;SDS011;40968;52.342;5.528;2023-08-01T02:42:01;22.55;;;5.25;;
43160;SDS011;40968;52.342;5.528;2023-08-01T02:44:28;22.52;;;5.05;;
43160;SDS011;40968;52.342;5.528;2023-08-01T02:46:56;19.33;;;4.82;;
43160;SDS011;40968;52.342;5.528;2023-08-01T02:49:23;14.00;;;4.75;;
43160;SDS011;40968;52.342;5.528;2023-08-01T02:51:49;19.92;;;4.97;;
43160;SDS011;40968;52.342;5.528;2023-08-01T02:54:16;18.55;;;4.68;;
43160;SDS011;40968;52.342;5.528;2023-08-01T02:56:42;14.05;;;4.57;;
43160;SDS011;40968;52.342;5.528;2023-08-01T02:59:09;14.68;;;4.68;;
43160;SDS011;40968;52.342;5.528;2023-08-01T03:01:37;23.10;;;5.13;;
43160;SDS011;40968;52.342;5.528;2023-08-01T03:04:06;23.42;;;5.30;;
43160;SDS011;40968;52.342;5.528;2023-08-01T03:06:32;12.57;;;4.32;;
43160;SDS011;40968;52.342;5.528;2023-08-01T03:08:59;17.08;;;4.47;;
43160;SDS011;40968;52.342;5.528;2023-08-01T03:11:27;19.30;;;5.30;;
43160;SDS011;40968;52.342;5.528;2023-08-01T03:13:53;17.08;;;4.35;;
43160;SDS011;40968;52.342;5.528;2023-08-01T03:16:20;14.02;;;4.20;;
43160;SDS011;40968;52.342;5.528;2023-08-01T03:18:47;16.20;;;4.93;;
43160;SDS011;40968;52.342;5.528;2023-08-01T03:21:15;14.20;;;4.63;;
43160;SDS011;40968;52.342;5.528;2023-08-01T03:23:41;32.50;;;4.68;;
43160;SDS011;40968;52.342;5.528;2023-08-01T03:26:08;18.85;;;4.20;;
43160;SDS011;40968;52.342;5.528;2023-08-01T03:28:35;16.33;;;4.93;;
43160;SDS011;40968;52.342;5.528;2023-08-01T03:31:01;23.08;;;4.43;;
43160;SDS011;40968;52.342;5.528;2023-08-01T03:33:28;16.10;;;4.85;;
43160;SDS011;40968;52.342;5.528;2023-08-01T03:35:55;14.45;;;4.15;;
43160;SDS011;40968;52.342;5.528;2023-08-01T03:38:23;15.25;;;3.80;;
43160;SDS011;40968;52.342;5.528;2023-08-01T03:40:50;20.10;;;4.40;;
43160;SDS011;40968;52.342;5.528;2023-08-01T03:43:16;20.17;;;4.13;;
43160;SDS011;40968;52.342;5.528;2023-08-01T03:45:48;15.30;;;4.22;;
43160;SDS011;40968;52.342;5.528;2023-08-01T03:48:15;12.05;;;3.47;;
43160;SDS011;40968;52.342;5.528;2023-08-01T03:50:41;9.23;;;3.33;;
43160;SDS011;40968;52.342;5.528;2023-08-01T03:53:08;10.25;;;3.70;;
43160;SDS011;40968;52.342;5.528;2023-08-01T03:55:36;12.77;;;3.83;;
43160;SDS011;40968;52.342;5.528;2023-08-01T03:58:03;10.02;;;3.95;;
43160;SDS011;40968;52.342;5.528;2023-08-01T04:00:30;17.80;;;4.45;;
43160;SDS011;40968;52.342;5.528;2023-08-01T04:02:57;13.65;;;3.55;;
43160;SDS011;40968;52.342;5.528;2023-08-01T04:05:24;14.65;;;4.38;;
43160;SDS011;40968;52.342;5.528;2023-08-01T04:07:51;11.13;;;3.92;;
43160;SDS011;40968;52.342;5.528;2023-08-01T04:10:19;10.25;;;3.60;;
43160;SDS011;40968;52.342;5.528;2023-08-01T04:12:47;19.30;;;4.65;;
43160;SDS011;40968;52.342;5.528;2023-08-01T04:15:14;12.82;;;4.20;;
43160;SDS011;40968;52.342;5.528;2023-08-01T04:17:41;19.10;;;4.20;;
43160;SDS011;40968;52.342;5.528;2023-08-01T04:20:08;20.30;;;5.05;;
43160;SDS011;40968;52.342;5.528;2023-08-01T04:22:35;15.32;;;3.75;;
43160;SDS011;40968;52.342;5.528;2023-08-01T04:25:02;16.27;;;4.30;;
43160;SDS011;40968;52.342;5.528;2023-08-01T04:27:29;13.18;;;4.28;;
43160;SDS011;40968;52.342;5.528;2023-08-01T04:29:57;12.32;;;4.43;;
43160;SDS011;40968;52.342;5.528;2023-08-01T04:32:23;10.13;;;3.92;;
43160;SDS011;40968;52.342;5.528;2023-08-01T04:34:50;17.48;;;4.65;;
43160;SDS011;40968;52.342;5.528;2023-08-01T04:37:17;17.83;;;4.65;;
43160;SDS011;40968;52.342;5.528;2023-08-01T04:39:45;18.02;;;4.75;;
43160;SDS011;40968;52.342;5.528;2023-08-01T04:42:12;15.75;;;4.82;;
43160;SDS011;40968;52.342;5.528;2023-08-01T04:44:39;21.58;;;4.40;;
43160;SDS011;40968;52.342;5.528;2023-08-01T04:47:06;19.80;;;5.25;;
43160;SDS011;40968;52.342;5.528;2023-08-01T04:49:33;13.90;;;5.45;;
43160;SDS011;40968;52.342;5.528;2023-08-01T04:52:00;19.42;;;4.70;;
43160;SDS011;40968;52.342;5.528;2023-08-01T04:54:26;21.90;;;5.30;;
43160;SDS011;40968;52.342;5.528;2023-08-01T04:56:53;16.77;;;4.78;;
43160;SDS011;40968;52.342;5.528;2023-08-01T04:59:19;21.77;;;6.00;;
43160;SDS011;40968;52.342;5.528;2023-08-01T05:01:46;18.80;;;5.07;;
43160;SDS011;40968;52.342;5.528;2023-08-01T05:04:14;18.00;;;5.50;;
43160;SDS011;40968;52.342;5.528;2023-08-01T05:06:41;14.88;;;5.57;;
43160;SDS011;40968;52.342;5.528;2023-08-01T05:09:07;26.65;;;5.95;;
43160;SDS011;40968;52.342;5.528;2023-08-01T05:11:34;22.67;;;5.85;;
43160;SDS011;40968;52.342;5.528;2023-08-01T05:14:01;22.00;;;5.57;;
43160;SDS011;40968;52.342;5.528;2023-08-01T05:16:28;22.90;;;4.90;;
43160;SDS011;40968;52.342;5.528;2023-08-01T05:18:54;29.42;;;6.03;;
43160;SDS011;40968;52.342;5.528;2023-08-01T05:21:22;18.10;;;5.22;;
43160;SDS011;40968;52.342;5.528;2023-08-01T05:23:49;41.22;;;7.57;;
43160;SDS011;40968;52.342;5.528;2023-08-01T05:26:15;23.50;;;5.68;;
43160;SDS011;40968;52.342;5.528;2023-08-01T05:28:42;17.17;;;4.20;;
43160;SDS011;40968;52.342;5.528;2023-08-01T05:31:09;15.75;;;4.03;;
43160;SDS011;40968;52.342;5.528;2023-08-01T05:33:35;12.77;;;4.05;;
43160;SDS011;40968;52.342;5.528;2023-08-01T05:36:02;16.10;;;3.80;;
43160;SDS011;40968;52.342;5.528;2023-08-01T05:38:30;13.80;;;4.50;;
43160;SDS011;40968;52.342;5.528;2023-08-01T05:40:57;15.30;;;4.57;;
43160;SDS011;40968;52.342;5.528;2023-08-01T05:43:23;16.35;;;5.03;;
43160;SDS011;40968;52.342;5.528;2023-08-01T05:45:50;18.98;;;4.55;;
43160;SDS011;40968;52.342;5.528;2023-08-01T05:48:17;18.38;;;4.80;;
43160;SDS011;40968;52.342;5.528;2023-08-01T05:50:43;15.23;;;4.43;;
43160;SDS011;40968;52.342;5.528;2023-08-01T05:53:10;15.10;;;4.57;;
43160;SDS011;40968;52.342;5.528;2023-08-01T05:55:38;22.63;;;4.85;;
43160;SDS011;40968;52.342;5.528;2023-08-01T05:58:05;22.02;;;5.85;;
43160;SDS011;40968;52.342;5.528;2023-08-01T06:00:31;19.73;;;5.53;;
43160;SDS011;40968;52.342;5.528;2023-08-01T06:02:58;26.00;;;5.82;;
43160;SDS011;40968;52.342;5.528;2023-08-01T06:05:25;19.17;;;5.25;;
43160;SDS011;40968;52.342;5.528;2023-08-01T06:07:52;17.65;;;4.50;;
43160;SDS011;40968;52.342;5.528;2023-08-01T06:10:19;20.55;;;4.60;;
43160;SDS011;40968;52.342;5.528;2023-08-01T06:12:47;25.30;;;5.32;;
43160;SDS011;40968;52.342;5.528;2023-08-01T06:15:14;18.90;;;5.40;;
43160;SDS011;40968;52.342;5.528;2023-08-01T06:17:40;18.75;;;5.55;;
43160;SDS011;40968;52.342;5.528;2023-08-01T06:20:07;23.33;;;5.10;;
43160;SDS011;40968;52.342;5.528;2023-08-01T06:22:35;24.15;;;5.18;;
43160;SDS011;40968;52.342;5.528;2023-08-01T06:25:01;17.95;;;5.18;;
43160;SDS011;40968;52.342;5.528;2023-08-01T06:27:28;16.00;;;4.85;;
43160;SDS011;40968;52.342;5.528;2023-08-01T06:29:56;16.40;;;4.47;;
43160;SDS011;40968;52.342;5.528;2023-08-01T06:32:23;16.92;;;4.80;;
43160;SDS011;40968;52.342;5.528;2023-08-01T06:34:50;24.58;;;5.72;;
43160;SDS011;40968;52.342;5.528;2023-08-01T06:37:16;20.58;;;4.38;;
43160;SDS011;40968;52.342;5.528;2023-08-01T06:39:43;14.50;;;3.97;;
43160;SDS011;40968;52.342;5.528;2023-08-01T06:42:09;19.40;;;4.32;;
43160;SDS011;40968;52.342;5.528;2023-08-01T06:44:36;11.52;;;4.10;;
43160;SDS011;40968;52.342;5.528;2023-08-01T06:47:05;21.08;;;4.57;;
43160;SDS011;40968;52.342;5.528;2023-08-01T06:49:32;27.55;;;5.28;;
43160;SDS011;40968;52.342;5.528;2023-08-01T06:51:58;18.10;;;4.40;;
43160;SDS011;40968;52.342;5.528;2023-08-01T06:54:25;22.33;;;4.53;;
43160;SDS011;40968;52.342;5.528;2023-08-01T06:56:52;16.02;;;4.28;;
43160;SDS011;40968;52.342;5.528;2023-08-01T06:59:18;21.80;;;4.30;;
43160;SDS011;40968;52.342;5.528;2023-08-01T07:01:46;15.90;;;4.57;;
43160;SDS011;40968;52.342;5.528;2023-08-01T07:04:14;13.93;;;4.13;;
43160;SDS011;40968;52.342;5.528;2023-08-01T07:06:41;18.48;;;4.25;;
43160;SDS011;40968;52.342;5.528;2023-08-01T07:09:07;13.85;;;3.50;;
43160;SDS011;40968;52.342;5.528;2023-08-01T07:11:35;14.20;;;4.00;;
43160;SDS011;40968;52.342;5.528;2023-08-01T07:14:02;14.73;;;3.63;;
43160;SDS011;40968;52.342;5.528;2023-08-01T07:16:28;12.05;;;3.47;;
43160;SDS011;40968;52.342;5.528;2023-08-01T07:18:55;18.58;;;4.05;;
43160;SDS011;40968;52.342;5.528;2023-08-01T07:21:23;14.90;;;3.70;;
43160;SDS011;40968;52.342;5.528;2023-08-01T07:23:50;13.57;;;3.60;;
43160;SDS011;40968;52.342;5.528;2023-08-01T07:26:17;12.52;;;3.25;;
43160;SDS011;40968;52.342;5.528;2023-08-01T07:28:44;10.70;;;3.42;;
43160;SDS011;40968;52.342;5.528;2023-08-01T07:31:11;20.85;;;3.47;;
43160;SDS011;40968;52.342;5.528;2023-08-01T07:33:37;15.85;;;3.40;;
43160;SDS011;40968;52.342;5.528;2023-08-01T07:36:04;11.02;;;3.55;;
43160;SDS011;40968;52.342;5.528;2023-08-01T07:38:32;15.93;;;3.58;;
43160;SDS011;40968;52.342;5.528;2023-08-01T07:41:01;14.80;;;2.95;;
43160;SDS011;40968;52.342;5.528;2023-08-01T07:43:29;16.73;;;3.30;;
43160;SDS011;40968;52.342;5.528;2023-08-01T07:45:56;15.48;;;2.97;;
43160;SDS011;40968;52.342;5.528;2023-08-01T07:48:23;9.88;;;2.88;;
43160;SDS011;40968;52.342;5.528;2023-08-01T07:50:50;16.52;;;3.33;;
43160;SDS011;40968;52.342;5.528;2023-08-01T07:53:16;16.67;;;3.33;;
43160;SDS011;40968;52.342;5.528;2023-08-01T07:55:44;11.00;;;2.92;;
43160;SDS011;40968;52.342;5.528;2023-08-01T07:58:11;14.98;;;3.25;;
43160;SDS011;40968;52.342;5.528;2023-08-01T08:00:37;10.75;;;3.22;;
43160;SDS011;40968;52.342;5.528;2023-08-01T08:03:04;14.82;;;2.83;;
43160;SDS011;40968;52.342;5.528;2023-08-01T08:05:33;9.18;;;2.60;;
43160;SDS011;40968;52.342;5.528;2023-08-01T08:08:03;8.88;;;3.00;;
43160;SDS011;40968;52.342;5.528;2023-08-01T08:10:30;10.20;;;2.85;;
43160;SDS011;40968;52.342;5.528;2023-08-01T08:12:58;10.40;;;2.53;;
43160;SDS011;40968;52.342;5.528;2023-08-01T08:15:25;15.40;;;3.17;;
43160;SDS011;40968;52.342;5.528;2023-08-01T08:17:51;11.52;;;2.90;;
43160;SDS011;40968;52.342;5.528;2023-08-01T08:20:18;13.32;;;4.43;;
43160;SDS011;40968;52.342;5.528;2023-08-01T08:22:44;11.65;;;3.28;;
43160;SDS011;40968;52.342;5.528;2023-08-01T08:25:11;12.52;;;2.72;;
43160;SDS011;40968;52.342;5.528;2023-08-01T08:27:38;8.07;;;2.70;;
43160;SDS011;40968;52.342;5.528;2023-08-01T08:30:06;10.20;;;3.03;;
43160;SDS011;40968;52.342;5.528;2023-08-01T08:32:34;12.82;;;2.97;;
43160;SDS011;40968;52.342;5.528;2023-08-01T08:35:01;13.18;;;3.33;;
43160;SDS011;40968;52.342;5.528;2023-08-01T08:37:28;14.40;;;3.60;;
43160;SDS011;40968;52.342;5.528;2023-08-01T08:39:54;17.02;;;3.10;;
43160;SDS011;40968;52.342;5.528;2023-08-01T08:42:21;11.02;;;3.40;;
43160;SDS011;40968;52.342;5.528;2023-08-01T08:44:49;11.63;;;3.47;;
43160;SDS011;40968;52.342;5.528;2023-08-01T08:47:21;16.98;;;4.10;;
43160;SDS011;40968;52.342;5.528;2023-08-01T08:49:51;11.52;;;2.88;;
43160;SDS011;40968;52.342;5.528;2023-08-01T08:52:21;10.60;;;3.35;;
43160;SDS011;40968;52.342;5.528;2023-08-01T08:54:48;9.18;;;3.05;;
43160;SDS011;40968;52.342;5.528;2023-08-01T08:57:15;15.73;;;4.28;;
43160;SDS011;40968;52.342;5.528;2023-08-01T08:59:42;17.23;;;3.22;;
43160;SDS011;40968;52.342;5.528;2023-08-01T09:02:09;8.82;;;2.80;;
43160;SDS011;40968;52.342;5.528;2023-08-01T09:04:38;14.50;;;3.53;;
43160;SDS011;40968;52.342;5.528;2023-08-01T09:07:06;8.02;;;3.20;;
43160;SDS011;40968;52.342;5.528;2023-08-01T09:09:36;8.90;;;2.75;;
43160;SDS011;40968;52.342;5.528;2023-08-01T09:12:03;13.13;;;3.10;;
43160;SDS011;40968;52.342;5.528;2023-08-01T09:14:30;8.48;;;2.53;;
43160;SDS011;40968;52.342;5.528;2023-08-01T09:17:05;15.80;;;3.60;;
43160;SDS011;40968;52.342;5.528;2023-08-01T09:19:32;11.18;;;3.20;;
43160;SDS011;40968;52.342;5.528;2023-08-01T09:22:00;12.18;;;3.70;;
43160;SDS011;40968;52.342;5.528;2023-08-01T09:24:27;11.70;;;2.83;;
43160;SDS011;40968;52.342;5.528;2023-08-01T09:27:01;16.00;;;3.47;;
43160;SDS011;40968;52.342;5.528;2023-08-01T09:29:29;11.70;;;3.40;;
43160;SDS011;40968;52.342;5.528;2023-08-01T09:31:56;16.15;;;3.08;;
43160;SDS011;40968;52.342;5.528;2023-08-01T09:34:24;15.45;;;3.35;;
43160;SDS011;40968;52.342;5.528;2023-08-01T09:36:56;15.73;;;3.45;;
43160;SDS011;40968;52.342;5.528;2023-08-01T09:39:25;10.48;;;2.30;;
43160;SDS011;40968;52.342;5.528;2023-08-01T09:41:55;17.35;;;3.15;;
43160;SDS011;40968;52.342;5.528;2023-08-01T09:44:22;6.93;;;2.03;;
43160;SDS011;40968;52.342;5.528;2023-08-01T09:46:54;6.38;;;2.40;;
43160;SDS011;40968;52.342;5.528;2023-08-01T09:49:22;3.67;;;1.90;;
43160;SDS011;40968;52.342;5.528;2023-08-01T09:51:49;3.92;;;1.88;;
43160;SDS011;40968;52.342;5.528;2023-08-01T09:54:17;6.53;;;2.10;;
43160;SDS011;40968;52.342;5.528;2023-08-01T09:56:46;8.73;;;2.25;;
43160;SDS011;40968;52.342;5.528;2023-08-01T09:59:14;11.03;;;2.10;;
43160;SDS011;40968;52.342;5.528;2023-08-01T10:01:44;13.07;;;2.45;;
43160;SDS011;40968;52.342;5.528;2023-08-01T10:04:15;7.47;;;2.13;;
43160;SDS011;40968;52.342;5.528;2023-08-01T10:06:43;16.60;;;2.10;;
43160;SDS011;40968;52.342;5.528;2023-08-01T10:09:12;8.13;;;2.50;;
43160;SDS011;40968;52.342;5.528;2023-08-01T10:11:40;5.10;;;2.60;;
43160;SDS011;40968;52.342;5.528;2023-08-01T10:14:09;10.73;;;2.20;;
43160;SDS011;40968;52.342;5.528;2023-08-01T10:16:36;9.43;;;2.45;;
43160;SDS011;40968;52.342;5.528;2023-08-01T10:19:04;8.60;;;2.50;;
43160;SDS011;40968;52.342;5.528;2023-08-01T10:21:32;13.80;;;3.00;;
43160;SDS011;40968;52.342;5.528;2023-08-01T10:23:59;9.63;;;2.47;;
43160;SDS011;40968;52.342;5.528;2023-08-01T10:26:28;6.38;;;2.03;;
43160;SDS011;40968;52.342;5.528;2023-08-01T10:28:55;7.22;;;2.38;;
43160;SDS011;40968;52.342;5.528;2023-08-01T10:31:25;15.55;;;2.85;;
43160;SDS011;40968;52.342;5.528;2023-08-01T10:33:52;8.52;;;2.40;;
43160;SDS011;40968;52.342;5.528;2023-08-01T10:36:18;6.50;;;2.53;;
43160;SDS011;40968;52.342;5.528;2023-08-01T10:38:47;8.85;;;2.40;;
43160;SDS011;40968;52.342;5.528;2023-08-01T10:41:18;14.25;;;3.20;;
43160;SDS011;40968;52.342;5.528;2023-08-01T10:43:46;15.27;;;3.08;;
43160;SDS011;40968;52.342;5.528;2023-08-01T10:46:13;9.60;;;2.95;;
43160;SDS011;40968;52.342;5.528;2023-08-01T10:48:48;6.35;;;2.25;;
43160;SDS011;40968;52.342;5.528;2023-08-01T10:51:16;6.80;;;2.20;;
43160;SDS011;40968;52.342;5.528;2023-08-01T10:53:42;10.73;;;2.05;;
43160;SDS011;40968;52.342;5.528;2023-08-01T10:56:15;11.55;;;2.40;;
43160;SDS011;40968;52.342;5.528;2023-08-01T10:58:43;13.15;;;2.65;;
43160;SDS011;40968;52.342;5.528;2023-08-01T11:01:10;8.55;;;2.45;;
43160;SDS011;40968;52.342;5.528;2023-08-01T11:03:37;12.60;;;2.40;;
43160;SDS011;40968;52.342;5.528;2023-08-01T11:06:06;7.80;;;2.58;;
43160;SDS011;40968;52.342;5.528;2023-08-01T11:08:36;13.82;;;3.00;;
43160;SDS011;40968;52.342;5.528;2023-08-01T11:11:03;11.25;;;2.85;;
43160;SDS011;40968;52.342;5.528;2023-08-01T11:13:31;10.93;;;2.90;;
43160;SDS011;40968;52.342;5.528;2023-08-01T11:16:00;7.43;;;2.50;;
43160;SDS011;40968;52.342;5.528;2023-08-01T11:18:28;14.75;;;3.35;;
43160;SDS011;40968;52.342;5.528;2023-08-01T11:20:55;9.85;;;2.47;;
43160;SDS011;40968;52.342;5.528;2023-08-01T11:23:28;6.80;;;2.35;;
43160;SDS011;40968;52.342;5.528;2023-08-01T11:25:55;8.07;;;2.40;;
43160;SDS011;40968;52.342;5.528;2023-08-01T11:28:22;8.45;;;2.50;;
43160;SDS011;40968;52.342;5.528;2023-08-01T11:30:49;9.38;;;2.50;;
43160;SDS011;40968;52.342;5.528;2023-08-01T11:33:18;7.05;;;2.70;;
43160;SDS011;40968;52.342;5.528;2023-08-01T11:35:46;8.52;;;2.55;;
43160;SDS011;40968;52.342;5.528;2023-08-01T11:38:17;9.48;;;2.42;;
43160;SDS011;40968;52.342;5.528;2023-08-01T11:40:45;11.18;;;2.55;;
43160;SDS011;40968;52.342;5.528;2023-08-01T11:43:14;13.13;;;3.30;;
43160;SDS011;40968;52.342;5.528;2023-08-01T11:45:47;8.77;;;2.15;;
43160;SDS011;40968;52.342;5.528;2023-08-01T11:48:15;20.00;;;2.85;;
43160;SDS011;40968;52.342;5.528;2023-08-01T11:50:43;13.40;;;2.65;;
43160;SDS011;40968;52.342;5.528;2023-08-01T11:53:17;11.65;;;2.80;;
43160;SDS011;40968;52.342;5.528;2023-08-01T11:55:45;14.05;;;2.35;;
43160;SDS011;40968;52.342;5.528;2023-08-01T11:58:12;10.63;;;2.20;;
43160;SDS011;40968;52.342;5.528;2023-08-01T12:00:39;6.28;;;1.88;;
43160;SDS011;40968;52.342;5.528;2023-08-01T12:03:06;6.07;;;2.10;;
43160;SDS011;40968;52.342;5.528;2023-08-01T12:05:37;6.32;;;2.20;;
43160;SDS011;40968;52.342;5.528;2023-08-01T12:08:09;8.43;;;2.25;;
43160;SDS011;40968;52.342;5.528;2023-08-01T12:13:05;4.78;;;1.90;;
43160;SDS011;40968;52.342;5.528;2023-08-01T12:15:31;9.23;;;2.38;;
43160;SDS011;40968;52.342;5.528;2023-08-01T12:17:58;7.57;;;2.28;;
43160;SDS011;40968;52.342;5.528;2023-08-01T12:20:25;14.68;;;2.35;;
43160;SDS011;40968;52.342;5.528;2023-08-01T12:22:51;9.00;;;2.47;;
43160;SDS011;40968;52.342;5.528;2023-08-01T12:25:18;5.93;;;2.10;;
43160;SDS011;40968;52.342;5.528;2023-08-01T12:27:45;11.02;;;2.20;;
43160;SDS011;40968;52.342;5.528;2023-08-01T12:30:13;10.13;;;2.08;;
43160;SDS011;40968;52.342;5.528;2023-08-01T12:32:39;4.85;;;2.35;;
43160;SDS011;40968;52.342;5.528;2023-08-01T12:35:06;10.45;;;2.53;;
43160;SDS011;40968;52.342;5.528;2023-08-01T12:37:34;7.45;;;2.00;;
43160;SDS011;40968;52.342;5.528;2023-08-01T12:40:00;8.60;;;2.60;;
43160;SDS011;40968;52.342;5.528;2023-08-01T12:42:29;11.55;;;2.50;;
43160;SDS011;40968;52.342;5.528;2023-08-01T12:44:55;6.40;;;2.42;;
43160;SDS011;40968;52.342;5.528;2023-08-01T12:47:23;7.80;;;2.25;;
43160;SDS011;40968;52.342;5.528;2023-08-01T12:49:50;8.13;;;2.45;;
43160;SDS011;40968;52.342;5.528;2023-08-01T12:52:21;8.15;;;2.60;;
43160;SDS011;40968;52.342;5.528;2023-08-01T12:54:49;9.50;;;2.67;;
43160;SDS011;40968;52.342;5.528;2023-08-01T12:57:16;9.48;;;2.65;;
43160;SDS011;40968;52.342;5.528;2023-08-01T12:59:42;14.18;;;2.50;;
43160;SDS011;40968;52.342;5.528;2023-08-01T13:02:10;5.32;;;2.17;;
43160;SDS011;40968;52.342;5.528;2023-08-01T13:04:38;6.45;;;2.28;;
43160;SDS011;40968;52.342;5.528;2023-08-01T13:07:04;7.47;;;1.80;;
43160;SDS011;40968;52.342;5.528;2023-08-01T13:09:31;7.28;;;2.10;;
43160;SDS011;40968;52.342;5.528;2023-08-01T13:11:58;5.18;;;1.70;;
43160;SDS011;40968;52.342;5.528;2023-08-01T13:14:26;6.22;;;2.28;;
43160;SDS011;40968;52.342;5.528;2023-08-01T13:16:52;6.50;;;2.03;;
43160;SDS011;40968;52.342;5.528;2023-08-01T13:19:19;9.73;;;1.75;;
43160;SDS011;40968;52.342;5.528;2023-08-01T13:21:47;4.47;;;1.30;;
43160;SDS011;40968;52.342;5.528;2023-08-01T13:24:13;5.10;;;1.27;;
43160;SDS011;40968;52.342;5.528;2023-08-01T13:26:40;3.50;;;1.20;;
43160;SDS011;40968;52.342;5.528;2023-08-01T13:29:07;5.28;;;1.10;;
43160;SDS011;40968;52.342;5.528;2023-08-01T13:31:33;5.03;;;1.10;;
43160;SDS011;40968;52.342;5.528;2023-08-01T13:34:00;3.28;;;1.40;;
43160;SDS011;40968;52.342;5.528;2023-08-01T13:36:27;5.00;;;1.50;;
43160;SDS011;40968;52.342;5.528;2023-08-01T13:38:55;4.38;;;1.65;;
43160;SDS011;40968;52.342;5.528;2023-08-01T13:41:21;4.20;;;1.65;;
43160;SDS011;40968;52.342;5.528;2023-08-01T13:43:48;9.95;;;2.40;;
43160;SDS011;40968;52.342;5.528;2023-08-01T13:46:15;8.20;;;2.05;;
43160;SDS011;40968;52.342;5.528;2023-08-01T13:48:43;8.40;;;2.10;;
43160;SDS011;40968;52.342;5.528;2023-08-01T13:51:10;8.88;;;2.28;;
43160;SDS011;40968;52.342;5.528;2023-08-01T13:53:37;6.90;;;1.90;;
43160;SDS011;40968;52.342;5.528;2023-08-01T13:56:07;7.80;;;2.30;;
43160;SDS011;40968;52.342;5.528;2023-08-01T13:58:34;9.88;;;2.90;;
43160;SDS011;40968;52.342;5.528;2023-08-01T14:01:03;8.38;;;2.30;;
43160;SDS011;40968;52.342;5.528;2023-08-01T14:03:32;13.13;;;2.60;;
43160;SDS011;40968;52.342;5.528;2023-08-01T14:06:03;13.55;;;3.35;;
43160;SDS011;40968;52.342;5.528;2023-08-01T14:08:30;5.43;;;2.20;;
43160;SDS011;40968;52.342;5.528;2023-08-01T14:10:57;9.05;;;2.45;;
43160;SDS011;40968;52.342;5.528;2023-08-01T14:13:25;7.70;;;2.80;;
43160;SDS011;40968;52.342;5.528;2023-08-01T14:15:51;7.18;;;2.53;;
43160;SDS011;40968;52.342;5.528;2023-08-01T14:18:18;9.07;;;2.78;;
43160;SDS011;40968;52.342;5.528;2023-08-01T14:20:45;12.15;;;2.80;;
43160;SDS011;40968;52.342;5.528;2023-08-01T14:23:11;6.22;;;2.72;;
43160;SDS011;40968;52.342;5.528;2023-08-01T14:25:38;10.10;;;2.90;;
43160;SDS011;40968;52.342;5.528;2023-08-01T14:28:05;9.40;;;2.75;;
43160;SDS011;40968;52.342;5.528;2023-08-01T14:30:33;7.07;;;2.50;;
43160;SDS011;40968;52.342;5.528;2023-08-01T14:32:59;6.22;;;2.15;;
43160;SDS011;40968;52.342;5.528;2023-08-01T14:35:26;8.07;;;2.60;;
43160;SDS011;40968;52.342;5.528;2023-08-01T14:37:53;6.82;;;2.35;;
43160;SDS011;40968;52.342;5.528;2023-08-01T14:40:20;5.82;;;2.35;;